TimeEST,TemperatureF,Dew PointF,Humidity,Sea Level PressureIn,VisibilityMPH,Wind Direction,Wind SpeedMPH,Gust SpeedMPH,PrecipitationIn,Events,Conditions,WindDirDegrees,DateUTC
12:54 AM,46.0,32.0,58,30.12,10.0,NW,6.9,-,N/A,,Scattered Clouds,320,2011-11-21 05:54:00
1:54 AM,44.1,34.0,68,30.14,10.0,Calm,Calm,-,N/A,,Mostly Cloudy,0,2011-11-21 06:54:00
2:54 AM,42.1,32.0,67,30.17,10.0,WNW,4.6,-,N/A,,Mostly Cloudy,300,2011-11-21 07:54:00
3:54 AM,39.0,28.9,67,30.20,10.0,Calm,Calm,-,N/A,,Mostly Cloudy,0,2011-11-21 08:54:00
4:54 AM,37.0,27.0,67,30.23,10.0,NNW,4.6,-,N/A,,Scattered Clouds,340,2011-11-21 09:54:00
5:54 AM,34.0,24.1,67,30.26,10.0,North,3.5,-,N/A,,Clear,10,2011-11-21 10:54:00
6:54 AM,30.0,23.0,75,30.30,10.0,NE,3.5,-,N/A,,Clear,40,2011-11-21 11:54:00
7:54 AM,28.0,23.0,81,30.32,10.0,Calm,Calm,-,N/A,,Clear,0,2011-11-21 12:54:00
9:54 AM,37.0,16.0,42,30.35,10.0,Calm,Calm,-,N/A,,Clear,0,2011-11-21 14:54:00
10:54 AM,39.9,17.1,40,30.35,10.0,Calm,Calm,-,N/A,,Clear,0,2011-11-21 15:54:00
11:54 AM,41.0,16.0,36,30.32,10.0,NE,5.8,-,N/A,,Clear,40,2011-11-21 16:54:00
12:54 PM,43.0,15.1,32,30.31,10.0,Calm,Calm,-,N/A,,Clear,0,2011-11-21 17:54:00
1:54 PM,44.1,14.0,30,30.29,10.0,East,5.8,-,N/A,,Clear,100,2011-11-21 18:54:00
2:54 PM,43.0,12.9,30,30.29,10.0,NE,4.6,-,N/A,,Clear,40,2011-11-21 19:54:00
3:54 PM,39.0,12.9,34,30.31,10.0,NE,3.5,-,N/A,,Clear,50,2011-11-21 20:54:00
4:54 PM,28.0,21.9,78,30.34,10.0,Calm,Calm,-,N/A,,Clear,0,2011-11-21 21:54:00
5:54 PM,26.1,18.0,71,30.37,10.0,Calm,Calm,-,N/A,,Clear,0,2011-11-21 22:54:00
6:54 PM,24.1,19.0,81,30.38,10.0,Calm,Calm,-,N/A,,Clear,0,2011-11-21 23:54:00
7:54 PM,23.0,17.1,78,30.39,10.0,Calm,Calm,-,N/A,,Clear,0,2011-11-22 00:54:00
8:54 PM,19.0,17.1,92,30.38,10.0,Calm,Calm,-,N/A,,Clear,0,2011-11-22 01:54:00
9:54 PM,19.9,16.0,85,30.38,10.0,Calm,Calm,-,N/A,,Clear,0,2011-11-22 02:54:00
10:54 PM,19.0,16.0,88,30.39,10.0,West,3.5,-,N/A,,Clear,280,2011-11-22 03:54:00
11:54 PM,18.0,16.0,92,30.38,10.0,Calm,Calm,-,N/A,,Clear,0,2011-11-22 04:54:00